sensor_id;sensor_type;location;lat;lon;timestamp;P1;durP1;ratioP1;P2;durP2;ratioP2
15120;SDS011;7661;48.904;9.414;2023-06-26T00:00:04;1.40;;;0.60;;
15120;SDS011;7661;48.904;9.414;2023-06-26T00:02:32;1.30;;;0.60;;
15120;SDS011;7661;48.904;9.414;2023-06-26T00:05:00;1.40;;;0.50;;
15120;SDS011;7661;48.904;9.414;2023-06-26T00:07:28;1.40;;;0.60;;
15120;SDS011;7661;48.904;9.414;2023-06-26T00:09:56;1.30;;;0.50;;
15120;SDS011;7661;48.904;9.414;2023-06-26T00:12:25;1.40;;;0.60;;
15120;SDS011;7661;48.904;9.414;2023-06-26T00:14:52;1.40;;;0.50;;
15120;SDS011;7661;48.904;9.414;2023-06-26T00:17:19;1.40;;;0.50;;
15120;SDS011;7661;48.904;9.414;2023-06-26T00:19:46;1.30;;;0.50;;
15120;SDS011;7661;48.904;9.414;2023-06-26T00:22:13;1.37;;;0.50;;
15120;SDS011;7661;48.904;9.414;2023-06-26T00:24:40;1.40;;;0.60;;
15120;SDS011;7661;48.904;9.414;2023-06-26T00:27:07;1.33;;;0.50;;
15120;SDS011;7661;48.904;9.414;2023-06-26T00:29:35;1.40;;;0.60;;
15120;SDS011;7661;48.904;9.414;2023-06-26T00:32:03;1.40;;;0.50;;
15120;SDS011;7661;48.904;9.414;2023-06-26T00:34:30;1.40;;;0.60;;
15120;SDS011;7661;48.904;9.414;2023-06-26T00:36:57;1.40;;;0.50;;
15120;SDS011;7661;48.904;9.414;2023-06-26T00:39:25;1.40;;;0.60;;
15120;SDS011;7661;48.904;9.414;2023-06-26T00:41:52;1.40;;;0.60;;
15120;SDS011;7661;48.904;9.414;2023-06-26T00:44:19;1.40;;;0.50;;
15120;SDS011;7661;48.904;9.414;2023-06-26T00:46:48;1.40;;;0.50;;
15120;SDS011;7661;48.904;9.414;2023-06-26T00:49:15;1.40;;;0.60;;
15120;SDS011;7661;48.904;9.414;2023-06-26T00:51:42;1.40;;;0.50;;
15120;SDS011;7661;48.904;9.414;2023-06-26T00:54:10;1.40;;;0.60;;
15120;SDS011;7661;48.904;9.414;2023-06-26T00:56:37;1.40;;;0.60;;
15120;SDS011;7661;48.904;9.414;2023-06-26T00:59:04;1.40;;;0.50;;
15120;SDS011;7661;48.904;9.414;2023-06-26T01:01:31;1.40;;;0.60;;
15120;SDS011;7661;48.904;9.414;2023-06-26T01:03:59;1.40;;;0.53;;
15120;SDS011;7661;48.904;9.414;2023-06-26T01:06:27;1.40;;;0.60;;
15120;SDS011;7661;48.904;9.414;2023-06-26T01:08:57;1.40;;;0.60;;
15120;SDS011;7661;48.904;9.414;2023-06-26T01:11:24;1.40;;;0.60;;
15120;SDS011;7661;48.904;9.414;2023-06-26T01:13:51;1.40;;;0.60;;
15120;SDS011;7661;48.904;9.414;2023-06-26T01:16:20;1.40;;;0.50;;
15120;SDS011;7661;48.904;9.414;2023-06-26T01:18:49;1.40;;;0.60;;
15120;SDS011;7661;48.904;9.414;2023-06-26T01:21:18;1.40;;;0.60;;
15120;SDS011;7661;48.904;9.414;2023-06-26T01:23:51;1.30;;;0.50;;
15120;SDS011;7661;48.904;9.414;2023-06-26T01:26:32;1.30;;;0.50;;
15120;SDS011;7661;48.904;9.414;2023-06-26T01:29:01;1.40;;;0.60;;
15120;SDS011;7661;48.904;9.414;2023-06-26T01:31:30;1.40;;;0.60;;
15120;SDS011;7661;48.904;9.414;2023-06-26T01:33:57;1.50;;;0.60;;
15120;SDS011;7661;48.904;9.414;2023-06-26T01:36:25;1.40;;;0.50;;
15120;SDS011;7661;48.904;9.414;2023-06-26T01:38:52;1.40;;;0.60;;
15120;SDS011;7661;48.904;9.414;2023-06-26T01:41:19;1.40;;;0.60;;
15120;SDS011;7661;48.904;9.414;2023-06-26T01:43:54;1.40;;;0.50;;
15120;SDS011;7661;48.904;9.414;2023-06-26T01:46:30;1.40;;;0.50;;
15120;SDS011;7661;48.904;9.414;2023-06-26T01:49:05;1.40;;;0.60;;
15120;SDS011;7661;48.904;9.414;2023-06-26T01:51:38;1.40;;;0.60;;
15120;SDS011;7661;48.904;9.414;2023-06-26T01:54:10;1.40;;;0.60;;
15120;SDS011;7661;48.904;9.414;2023-06-26T01:56:44;1.40;;;0.50;;
15120;SDS011;7661;48.904;9.414;2023-06-26T01:59:16;1.40;;;0.60;;
15120;SDS011;7661;48.904;9.414;2023-06-26T02:01:45;1.40;;;0.60;;
15120;SDS011;7661;48.904;9.414;2023-06-26T02:04:13;1.40;;;0.50;;
15120;SDS011;7661;48.904;9.414;2023-06-26T02:06:40;1.40;;;0.50;;
15120;SDS011;7661;48.904;9.414;2023-06-26T02:09:06;1.40;;;0.50;;
15120;SDS011;7661;48.904;9.414;2023-06-26T02:11:33;1.40;;;0.60;;
15120;SDS011;7661;48.904;9.414;2023-06-26T02:14:00;1.40;;;0.50;;
15120;SDS011;7661;48.904;9.414;2023-06-26T02:16:29;1.40;;;0.60;;
15120;SDS011;7661;48.904;9.414;2023-06-26T02:18:56;1.30;;;0.50;;
15120;SDS011;7661;48.904;9.414;2023-06-26T02:21:23;1.40;;;0.60;;
15120;SDS011;7661;48.904;9.414;2023-06-26T02:23:50;1.40;;;0.60;;
15120;SDS011;7661;48.904;9.414;2023-06-26T02:26:16;1.40;;;0.50;;
15120;SDS011;7661;48.904;9.414;2023-06-26T02:28:43;1.40;;;0.60;;
15120;SDS011;7661;48.904;9.414;2023-06-26T02:31:10;1.40;;;0.53;;
15120;SDS011;7661;48.904;9.414;2023-06-26T02:33:38;1.40;;;0.53;;
15120;SDS011;7661;48.904;9.414;2023-06-26T02:36:07;1.40;;;0.50;;
15120;SDS011;7661;48.904;9.414;2023-06-26T02:38:34;1.40;;;0.60;;
15120;SDS011;7661;48.904;9.414;2023-06-26T02:41:01;1.30;;;0.50;;
15120;SDS011;7661;48.904;9.414;2023-06-26T02:43:28;1.40;;;0.50;;
15120;SDS011;7661;48.904;9.414;2023-06-26T02:45:55;1.40;;;0.60;;
15120;SDS011;7661;48.904;9.414;2023-06-26T02:48:21;1.40;;;0.50;;
15120;SDS011;7661;48.904;9.414;2023-06-26T02:50:50;1.40;;;0.60;;
15120;SDS011;7661;48.904;9.414;2023-06-26T02:53:17;1.40;;;0.60;;
15120;SDS011;7661;48.904;9.414;2023-06-26T02:55:43;1.40;;;0.60;;
15120;SDS011;7661;48.904;9.414;2023-06-26T02:58:12;1.40;;;0.60;;
15120;SDS011;7661;48.904;9.414;2023-06-26T03:00:39;1.40;;;0.50;;
15120;SDS011;7661;48.904;9.414;2023-06-26T03:03:06;1.40;;;0.60;;
15120;SDS011;7661;48.904;9.414;2023-06-26T03:05:33;1.40;;;0.60;;
15120;SDS011;7661;48.904;9.414;2023-06-26T03:08:01;1.50;;;0.60;;
15120;SDS011;7661;48.904;9.414;2023-06-26T03:10:28;1.40;;;0.50;;
15120;SDS011;7661;48.904;9.414;2023-06-26T03:12:55;1.40;;;0.60;;
15120;SDS011;7661;48.904;9.414;2023-06-26T03:15:22;1.40;;;0.60;;
15120;SDS011;7661;48.904;9.414;2023-06-26T03:17:49;1.50;;;0.60;;
15120;SDS011;7661;48.904;9.414;2023-06-26T03:20:16;1.40;;;0.60;;
15120;SDS011;7661;48.904;9.414;2023-06-26T03:22:43;1.40;;;0.57;;
15120;SDS011;7661;48.904;9.414;2023-06-26T03:25:11;1.40;;;0.50;;
15120;SDS011;7661;48.904;9.414;2023-06-26T03:27:38;1.40;;;0.60;;
15120;SDS011;7661;48.904;9.414;2023-06-26T03:30:05;1.40;;;0.60;;
15120;SDS011;7661;48.904;9.414;2023-06-26T03:32:32;1.40;;;0.60;;
15120;SDS011;7661;48.904;9.414;2023-06-26T03:34:59;1.50;;;0.60;;
15120;SDS011;7661;48.904;9.414;2023-06-26T03:37:28;1.40;;;0.50;;
15120;SDS011;7661;48.904;9.414;2023-06-26T03:39:55;1.40;;;0.50;;
15120;SDS011;7661;48.904;9.414;2023-06-26T03:42:23;1.40;;;0.60;;
15120;SDS011;7661;48.904;9.414;2023-06-26T03:44:50;1.40;;;0.57;;
15120;SDS011;7661;48.904;9.414;2023-06-26T03:47:17;1.40;;;0.60;;
15120;SDS011;7661;48.904;9.414;2023-06-26T03:49:43;1.40;;;0.50;;
15120;SDS011;7661;48.904;9.414;2023-06-26T03:52:10;1.40;;;0.60;;
15120;SDS011;7661;48.904;9.414;2023-06-26T03:54:37;1.40;;;0.60;;
15120;SDS011;7661;48.904;9.414;2023-06-26T03:57:04;1.40;;;0.60;;
15120;SDS011;7661;48.904;9.414;2023-06-26T03:59:32;1.40;;;0.60;;
15120;SDS011;7661;48.904;9.414;2023-06-26T04:01:59;1.47;;;0.60;;
15120;SDS011;7661;48.904;9.414;2023-06-26T04:04:26;1.30;;;0.50;;
15120;SDS011;7661;48.904;9.414;2023-06-26T04:06:53;1.40;;;0.60;;
15120;SDS011;7661;48.904;9.414;2023-06-26T04:09:20;1.40;;;0.60;;
15120;SDS011;7661;48.904;9.414;2023-06-26T04:11:47;1.43;;;0.60;;
15120;SDS011;7661;48.904;9.414;2023-06-26T04:14:13;1.40;;;0.60;;
15120;SDS011;7661;48.904;9.414;2023-06-26T04:16:42;1.37;;;0.50;;
15120;SDS011;7661;48.904;9.414;2023-06-26T04:19:09;1.40;;;0.60;;
15120;SDS011;7661;48.904;9.414;2023-06-26T04:21:36;1.40;;;0.60;;
15120;SDS011;7661;48.904;9.414;2023-06-26T04:24:03;1.40;;;0.50;;
15120;SDS011;7661;48.904;9.414;2023-06-26T04:26:30;1.40;;;0.50;;
15120;SDS011;7661;48.904;9.414;2023-06-26T04:28:57;1.40;;;0.50;;
15120;SDS011;7661;48.904;9.414;2023-06-26T04:31:24;1.40;;;0.50;;
15120;SDS011;7661;48.904;9.414;2023-06-26T04:33:53;1.40;;;0.60;;
15120;SDS011;7661;48.904;9.414;2023-06-26T04:36:19;1.40;;;0.57;;
15120;SDS011;7661;48.904;9.414;2023-06-26T04:38:46;1.40;;;0.50;;
15120;SDS011;7661;48.904;9.414;2023-06-26T04:41:14;1.40;;;0.60;;
15120;SDS011;7661;48.904;9.414;2023-06-26T04:43:41;1.40;;;0.50;;
15120;SDS011;7661;48.904;9.414;2023-06-26T04:46:08;1.30;;;0.60;;
15120;SDS011;7661;48.904;9.414;2023-06-26T04:48:35;1.40;;;0.60;;
15120;SDS011;7661;48.904;9.414;2023-06-26T04:51:03;1.40;;;0.53;;
15120;SDS011;7661;48.904;9.414;2023-06-26T04:53:30;1.33;;;0.50;;
15120;SDS011;7661;48.904;9.414;2023-06-26T04:55:57;1.40;;;0.50;;
15120;SDS011;7661;48.904;9.414;2023-06-26T04:58:24;1.40;;;0.60;;
15120;SDS011;7661;48.904;9.414;2023-06-26T05:00:51;1.40;;;0.60;;
15120;SDS011;7661;48.904;9.414;2023-06-26T05:03:17;1.40;;;0.60;;
15120;SDS011;7661;48.904;9.414;2023-06-26T05:05:45;1.40;;;0.60;;
15120;SDS011;7661;48.904;9.414;2023-06-26T05:08:17;1.30;;;0.50;;
15120;SDS011;7661;48.904;9.414;2023-06-26T05:10:45;1.37;;;0.50;;
15120;SDS011;7661;48.904;9.414;2023-06-26T05:13:12;1.40;;;0.53;;
15120;SDS011;7661;48.904;9.414;2023-06-26T05:15:42;1.30;;;0.50;;
15120;SDS011;7661;48.904;9.414;2023-06-26T05:18:09;1.40;;;0.50;;
15120;SDS011;7661;48.904;9.414;2023-06-26T05:20:36;1.40;;;0.60;;
15120;SDS011;7661;48.904;9.414;2023-06-26T05:23:04;1.40;;;0.60;;
15120;SDS011;7661;48.904;9.414;2023-06-26T05:25:33;1.40;;;0.50;;
15120;SDS011;7661;48.904;9.414;2023-06-26T05:28:00;1.40;;;0.60;;
15120;SDS011;7661;48.904;9.414;2023-06-26T05:30:30;1.37;;;0.50;;
15120;SDS011;7661;48.904;9.414;2023-06-26T05:32:59;1.37;;;0.50;;
15120;SDS011;7661;48.904;9.414;2023-06-26T05:35:27;1.40;;;0.60;;
15120;SDS011;7661;48.904;9.414;2023-06-26T05:37:56;1.30;;;0.60;;
15120;SDS011;7661;48.904;9.414;2023-06-26T05:40:24;1.40;;;0.60;;
15120;SDS011;7661;48.904;9.414;2023-06-26T05:42:53;1.40;;;0.50;;
15120;SDS011;7661;48.904;9.414;2023-06-26T05:45:20;1.40;;;0.60;;
15120;SDS011;7661;48.904;9.414;2023-06-26T05:47:47;1.37;;;0.60;;
15120;SDS011;7661;48.904;9.414;2023-06-26T05:50:17;1.33;;;0.50;;
15120;SDS011;7661;48.904;9.414;2023-06-26T05:52:45;1.30;;;0.50;;
15120;SDS011;7661;48.904;9.414;2023-06-26T05:55:13;1.40;;;0.50;;
15120;SDS011;7661;48.904;9.414;2023-06-26T05:57:40;1.37;;;0.50;;
15120;SDS011;7661;48.904;9.414;2023-06-26T06:00:10;1.33;;;0.50;;
15120;SDS011;7661;48.904;9.414;2023-06-26T06:02:38;1.40;;;0.50;;
15120;SDS011;7661;48.904;9.414;2023-06-26T06:05:05;1.40;;;0.60;;
15120;SDS011;7661;48.904;9.414;2023-06-26T06:07:32;1.40;;;0.50;;
15120;SDS011;7661;48.904;9.414;2023-06-26T06:10:00;1.40;;;0.60;;
15120;SDS011;7661;48.904;9.414;2023-06-26T06:12:28;1.33;;;0.60;;
15120;SDS011;7661;48.904;9.414;2023-06-26T06:14:55;1.30;;;0.50;;
15120;SDS011;7661;48.904;9.414;2023-06-26T06:17:24;1.33;;;0.60;;
15120;SDS011;7661;48.904;9.414;2023-06-26T06:19:52;1.40;;;0.50;;
15120;SDS011;7661;48.904;9.414;2023-06-26T06:22:20;1.37;;;0.50;;
15120;SDS011;7661;48.904;9.414;2023-06-26T06:24:48;1.37;;;0.50;;
15120;SDS011;7661;48.904;9.414;2023-06-26T06:27:16;1.30;;;0.50;;
15120;SDS011;7661;48.904;9.414;2023-06-26T06:29:43;1.30;;;0.50;;
15120;SDS011;7661;48.904;9.414;2023-06-26T06:32:10;1.40;;;0.50;;
15120;SDS011;7661;48.904;9.414;2023-06-26T06:34:38;1.30;;;0.50;;
15120;SDS011;7661;48.904;9.414;2023-06-26T06:37:05;1.30;;;0.60;;
15120;SDS011;7661;48.904;9.414;2023-06-26T06:39:32;1.37;;;0.50;;
15120;SDS011;7661;48.904;9.414;2023-06-26T06:41:59;1.40;;;0.50;;
15120;SDS011;7661;48.904;9.414;2023-06-26T06:44:26;1.33;;;0.50;;
15120;SDS011;7661;48.904;9.414;2023-06-26T06:46:52;1.30;;;0.50;;
15120;SDS011;7661;48.904;9.414;2023-06-26T06:49:19;1.30;;;0.50;;
15120;SDS011;7661;48.904;9.414;2023-06-26T06:51:47;1.40;;;0.50;;
15120;SDS011;7661;48.904;9.414;2023-06-26T06:54:15;1.30;;;0.50;;
15120;SDS011;7661;48.904;9.414;2023-06-26T06:56:43;1.30;;;0.50;;
15120;SDS011;7661;48.904;9.414;2023-06-26T06:59:12;1.30;;;0.60;;
15120;SDS011;7661;48.904;9.414;2023-06-26T07:01:40;1.30;;;0.50;;
15120;SDS011;7661;48.904;9.414;2023-06-26T07:04:08;1.23;;;0.50;;
15120;SDS011;7661;48.904;9.414;2023-06-26T07:06:36;1.30;;;0.60;;
15120;SDS011;7661;48.904;9.414;2023-06-26T07:09:06;1.30;;;0.60;;
15120;SDS011;7661;48.904;9.414;2023-06-26T07:11:34;1.20;;;0.50;;
15120;SDS011;7661;48.904;9.414;2023-06-26T07:14:03;1.20;;;0.50;;
15120;SDS011;7661;48.904;9.414;2023-06-26T07:16:31;1.30;;;0.60;;
15120;SDS011;7661;48.904;9.414;2023-06-26T07:18:59;1.20;;;0.50;;
15120;SDS011;7661;48.904;9.414;2023-06-26T07:21:27;1.20;;;0.50;;
15120;SDS011;7661;48.904;9.414;2023-06-26T07:23:56;1.20;;;0.50;;
15120;SDS011;7661;48.904;9.414;2023-06-26T07:26:25;1.20;;;0.50;;
15120;SDS011;7661;48.904;9.414;2023-06-26T07:28:54;1.20;;;0.50;;
15120;SDS011;7661;48.904;9.414;2023-06-26T07:31:22;1.20;;;0.50;;
15120;SDS011;7661;48.904;9.414;2023-06-26T07:33:51;1.20;;;0.50;;
15120;SDS011;7661;48.904;9.414;2023-06-26T07:36:19;1.20;;;0.50;;
15120;SDS011;7661;48.904;9.414;2023-06-26T07:38:48;1.20;;;0.50;;
15120;SDS011;7661;48.904;9.414;2023-06-26T07:41:16;1.20;;;0.50;;
15120;SDS011;7661;48.904;9.414;2023-06-26T07:43:45;1.20;;;0.50;;
15120;SDS011;7661;48.904;9.414;2023-06-26T07:46:14;1.20;;;0.50;;
15120;SDS011;7661;48.904;9.414;2023-06-26T07:48:42;1.20;;;0.50;;
15120;SDS011;7661;48.904;9.414;2023-06-26T07:51:10;1.20;;;0.57;;
15120;SDS011;7661;48.904;9.414;2023-06-26T07:53:39;1.20;;;0.50;;
15120;SDS011;7661;48.904;9.414;2023-06-26T07:56:07;1.20;;;0.50;;
15120;SDS011;7661;48.904;9.414;2023-06-26T07:58:35;1.20;;;0.50;;
15120;SDS011;7661;48.904;9.414;2023-06-26T08:01:05;1.20;;;0.50;;
15120;SDS011;7661;48.904;9.414;2023-06-26T08:03:33;1.20;;;0.50;;
15120;SDS011;7661;48.904;9.414;2023-06-26T08:06:02;1.20;;;0.50;;
15120;SDS011;7661;48.904;9.414;2023-06-26T08:08:30;1.20;;;0.50;;
15120;SDS011;7661;48.904;9.414;2023-06-26T08:10:58;1.20;;;0.50;;
15120;SDS011;7661;48.904;9.414;2023-06-26T08:13:27;1.20;;;0.50;;
15120;SDS011;7661;48.904;9.414;2023-06-26T08:15:56;1.20;;;0.50;;
15120;SDS011;7661;48.904;9.414;2023-06-26T08:18:25;1.13;;;0.50;;
15120;SDS011;7661;48.904;9.414;2023-06-26T08:20:54;1.20;;;0.50;;
15120;SDS011;7661;48.904;9.414;2023-06-26T08:23:23;1.20;;;0.50;;
15120;SDS011;7661;48.904;9.414;2023-06-26T08:25:51;1.17;;;0.50;;
15120;SDS011;7661;48.904;9.414;2023-06-26T08:28:19;1.20;;;0.50;;
15120;SDS011;7661;48.904;9.414;2023-06-26T08:30:48;1.20;;;0.50;;
15120;SDS011;7661;48.904;9.414;2023-06-26T08:33:16;1.20;;;0.50;;
15120;SDS011;7661;48.904;9.414;2023-06-26T08:35:46;1.13;;;0.50;;
15120;SDS011;7661;48.904;9.414;2023-06-26T08:38:14;1.17;;;0.50;;
15120;SDS011;7661;48.904;9.414;2023-06-26T08:40:43;1.20;;;0.50;;
15120;SDS011;7661;48.904;9.414;2023-06-26T08:43:11;1.10;;;0.50;;
15120;SDS011;7661;48.904;9.414;2023-06-26T08:45:40;1.10;;;0.50;;
15120;SDS011;7661;48.904;9.414;2023-06-26T08:48:11;1.10;;;0.50;;
15120;SDS011;7661;48.904;9.414;2023-06-26T08:50:40;1.20;;;0.60;;
15120;SDS011;7661;48.904;9.414;2023-06-26T08:53:09;1.10;;;0.50;;
15120;SDS011;7661;48.904;9.414;2023-06-26T08:55:41;1.10;;;0.50;;
15120;SDS011;7661;48.904;9.414;2023-06-26T08:58:08;1.10;;;0.50;;
15120;SDS011;7661;48.904;9.414;2023-06-26T09:00:37;1.10;;;0.50;;
15120;SDS011;7661;48.904;9.414;2023-06-26T09:03:05;1.10;;;0.50;;
15120;SDS011;7661;48.904;9.414;2023-06-26T09:05:32;1.10;;;0.47;;
15120;SDS011;7661;48.904;9.414;2023-06-26T09:08:00;1.10;;;0.50;;
15120;SDS011;7661;48.904;9.414;2023-06-26T09:10:29;1.07;;;0.50;;
15120;SDS011;7661;48.904;9.414;2023-06-26T09:12:56;1.10;;;0.50;;
15120;SDS011;7661;48.904;9.414;2023-06-26T09:15:23;1.10;;;0.50;;
15120;SDS011;7661;48.904;9.414;2023-06-26T09:17:50;1.10;;;0.50;;
15120;SDS011;7661;48.904;9.414;2023-06-26T09:20:22;1.00;;;0.50;;
15120;SDS011;7661;48.904;9.414;2023-06-26T09:22:49;1.10;;;0.50;;
15120;SDS011;7661;48.904;9.414;2023-06-26T09:25:17;1.10;;;0.50;;
15120;SDS011;7661;48.904;9.414;2023-06-26T09:27:48;1.10;;;0.50;;
15120;SDS011;7661;48.904;9.414;2023-06-26T09:30:16;1.10;;;0.50;;
15120;SDS011;7661;48.904;9.414;2023-06-26T09:32:44;1.00;;;0.50;;
15120;SDS011;7661;48.904;9.414;2023-06-26T09:35:11;1.10;;;0.50;;
15120;SDS011;7661;48.904;9.414;2023-06-26T09:37:38;1.10;;;0.50;;
15120;SDS011;7661;48.904;9.414;2023-06-26T09:40:05;1.00;;;0.50;;
15120;SDS011;7661;48.904;9.414;2023-06-26T09:42:33;1.00;;;0.50;;
15120;SDS011;7661;48.904;9.414;2023-06-26T09:45:01;1.00;;;0.50;;
15120;SDS011;7661;48.904;9.414;2023-06-26T09:47:29;1.00;;;0.50;;
15120;SDS011;7661;48.904;9.414;2023-06-26T09:49:57;1.00;;;0.50;;
15120;SDS011;7661;48.904;9.414;2023-06-26T09:52:25;1.00;;;0.50;;
15120;SDS011;7661;48.904;9.414;2023-06-26T09:55:06;1.00;;;0.50;;
15120;SDS011;7661;48.904;9.414;2023-06-26T09:57:34;0.90;;;0.50;;
15120;SDS011;7661;48.904;9.414;2023-06-26T10:00:02;0.90;;;0.50;;
15120;SDS011;7661;48.904;9.414;2023-06-26T10:02:30;0.90;;;0.50;;
15120;SDS011;7661;48.904;9.414;2023-06-26T10:04:57;0.87;;;0.47;;
15120;SDS011;7661;48.904;9.414;2023-06-26T10:07:24;0.90;;;0.40;;
15120;SDS011;7661;48.904;9.414;2023-06-26T10:09:51;1.00;;;0.50;;
15120;SDS011;7661;48.904;9.414;2023-06-26T10:12:25;0.80;;;0.40;;
15120;SDS011;7661;48.904;9.414;2023-06-26T10:14:55;0.90;;;0.50;;
15120;SDS011;7661;48.904;9.414;2023-06-26T10:17:25;0.90;;;0.50;;
15120;SDS011;7661;48.904;9.414;2023-06-26T10:19:54;1.00;;;0.50;;
15120;SDS011;7661;48.904;9.414;2023-06-26T10:22:25;0.90;;;0.50;;
15120;SDS011;7661;48.904;9.414;2023-06-26T10:24:55;0.90;;;0.50;;
15120;SDS011;7661;48.904;9.414;2023-06-26T10:27:25;0.90;;;0.50;;
15120;SDS011;7661;48.904;9.414;2023-06-26T10:29:56;0.97;;;0.50;;
15120;SDS011;7661;48.904;9.414;2023-06-26T10:32:29;0.90;;;0.40;;
15120;SDS011;7661;48.904;9.414;2023-06-26T10:34:57;0.90;;;0.47;;
15120;SDS011;7661;48.904;9.414;2023-06-26T10:40:10;0.90;;;0.50;;
15120;SDS011;7661;48.904;9.414;2023-06-26T10:42:37;0.90;;;0.50;;
15120;SDS011;7661;48.904;9.414;2023-06-26T10:45:13;0.87;;;0.40;;
15120;SDS011;7661;48.904;9.414;2023-06-26T10:47:46;0.90;;;0.50;;
15120;SDS011;7661;48.904;9.414;2023-06-26T10:50:20;0.90;;;0.50;;
15120;SDS011;7661;48.904;9.414;2023-06-26T10:55:41;0.90;;;0.40;;
15120;SDS011;7661;48.904;9.414;2023-06-26T11:03:45;0.90;;;0.50;;
15120;SDS011;7661;48.904;9.414;2023-06-26T11:06:15;0.90;;;0.50;;
15120;SDS011;7661;48.904;9.414;2023-06-26T11:08:44;0.90;;;0.50;;
15120;SDS011;7661;48.904;9.414;2023-06-26T11:11:11;0.90;;;0.50;;
15120;SDS011;7661;48.904;9.414;2023-06-26T11:13:39;0.90;;;0.40;;
15120;SDS011;7661;48.904;9.414;2023-06-26T11:16:06;0.90;;;0.50;;
15120;SDS011;7661;48.904;9.414;2023-06-26T11:18:33;0.90;;;0.50;;
15120;SDS011;7661;48.904;9.414;2023-06-26T11:21:08;0.90;;;0.50;;
15120;SDS011;7661;48.904;9.414;2023-06-26T11:23:36;0.90;;;0.40;;
15120;SDS011;7661;48.904;9.414;2023-06-26T11:26:13;0.83;;;0.40;;
15120;SDS011;7661;48.904;9.414;2023-06-26T11:28:45;0.90;;;0.50;;
15120;SDS011;7661;48.904;9.414;2023-06-26T11:31:25;0.90;;;0.50;;
15120;SDS011;7661;48.904;9.414;2023-06-26T11:33:55;0.90;;;0.50;;
15120;SDS011;7661;48.904;9.414;2023-06-26T11:36:25;0.90;;;0.43;;
15120;SDS011;7661;48.904;9.414;2023-06-26T11:38:52;0.87;;;0.50;;
15120;SDS011;7661;48.904;9.414;2023-06-26T11:41:20;0.90;;;0.50;;
15120;SDS011;7661;48.904;9.414;2023-06-26T11:43:47;0.90;;;0.50;;
15120;SDS011;7661;48.904;9.414;2023-06-26T11:46:15;0.90;;;0.50;;
15120;SDS011;7661;48.904;9.414;2023-06-26T11:48:43;0.90;;;0.50;;
15120;SDS011;7661;48.904;9.414;2023-06-26T11:51:12;0.90;;;0.50;;
15120;SDS011;7661;48.904;9.414;2023-06-26T11:53:41;0.90;;;0.40;;
15120;SDS011;7661;48.904;9.414;2023-06-26T11:56:09;0.90;;;0.50;;
15120;SDS011;7661;48.904;9.414;2023-06-26T11:58:36;0.80;;;0.40;;
15120;SDS011;7661;48.904;9.414;2023-06-26T12:01:18;0.90;;;0.43;;
15120;SDS011;7661;48.904;9.414;2023-06-26T12:03:46;0.80;;;0.40;;
15120;SDS011;7661;48.904;9.414;2023-06-26T12:06:13;0.90;;;0.50;;
15120;SDS011;7661;48.904;9.414;2023-06-26T12:08:42;0.90;;;0.40;;
15120;SDS011;7661;48.904;9.414;2023-06-26T12:11:09;0.90;;;0.50;;
15120;SDS011;7661;48.904;9.414;2023-06-26T12:13:37;0.90;;;0.40;;
15120;SDS011;7661;48.904;9.414;2023-06-26T12:16:04;0.90;;;0.50;;
15120;SDS011;7661;48.904;9.414;2023-06-26T12:18:33;1.00;;;0.50;;
15120;SDS011;7661;48.904;9.414;2023-06-26T12:21:00;1.00;;;0.50;;
15120;SDS011;7661;48.904;9.414;2023-06-26T12:23:31;1.00;;;0.50;;
15120;SDS011;7661;48.904;9.414;2023-06-26T12:26:15;1.00;;;0.50;;
15120;SDS011;7661;48.904;9.414;2023-06-26T12:28:44;0.90;;;0.50;;
15120;SDS011;7661;48.904;9.414;2023-06-26T12:31:14;0.90;;;0.40;;
15120;SDS011;7661;48.904;9.414;2023-06-26T12:33:42;0.90;;;0.50;;
15120;SDS011;7661;48.904;9.414;2023-06-26T12:36:10;0.90;;;0.50;;
15120;SDS011;7661;48.904;9.414;2023-06-26T12:38:38;0.90;;;0.50;;
15120;SDS011;7661;48.904;9.414;2023-06-26T12:41:06;0.90;;;0.40;;
15120;SDS011;7661;48.904;9.414;2023-06-26T12:43:38;0.90;;;0.40;;
15120;SDS011;7661;48.904;9.414;2023-06-26T12:46:05;0.90;;;0.50;;
15120;SDS011;7661;48.904;9.414;2023-06-26T12:48:41;0.90;;;0.50;;
15120;SDS011;7661;48.904;9.414;2023-06-26T12:51:12;0.90;;;0.50;;
15120;SDS011;7661;48.904;9.414;2023-06-26T12:53:39;0.90;;;0.43;;
15120;SDS011;7661;48.904;9.414;2023-06-26T12:56:08;0.90;;;0.50;;
15120;SDS011;7661;48.904;9.414;2023-06-26T12:58:37;0.90;;;0.47;;
15120;SDS011;7661;48.904;9.414;2023-06-26T13:01:05;0.90;;;0.40;;
15120;SDS011;7661;48.904;9.414;2023-06-26T13:03:35;0.90;;;0.50;;
15120;SDS011;7661;48.904;9.414;2023-06-26T13:06:02;0.90;;;0.40;;
15120;SDS011;7661;48.904;9.414;2023-06-26T13:08:29;0.90;;;0.50;;
15120;SDS011;7661;48.904;9.414;2023-06-26T13:10:56;0.90;;;0.40;;
15120;SDS011;7661;48.904;9.414;2023-06-26T13:13:24;0.90;;;0.40;;
15120;SDS011;7661;48.904;9.414;2023-06-26T13:15:52;0.90;;;0.50;;
15120;SDS011;7661;48.904;9.414;2023-06-26T13:18:19;0.90;;;0.50;;
15120;SDS011;7661;48.904;9.414;2023-06-26T13:20:46;0.90;;;0.50;;
15120;SDS011;7661;48.904;9.414;2023-06-26T13:23:13;0.90;;;0.40;;
15120;SDS011;7661;48.904;9.414;2023-06-26T13:25:40;0.90;;;0.50;;
15120;SDS011;7661;48.904;9.414;2023-06-26T13:28:07;0.90;;;0.40;;
15120;SDS011;7661;48.904;9.414;2023-06-26T13:30:35;0.90;;;0.50;;
15120;SDS011;7661;48.904;9.414;2023-06-26T13:33:02;0.90;;;0.50;;
15120;SDS011;7661;48.904;9.414;2023-06-26T13:35:29;0.90;;;0.40;;
15120;SDS011;7661;48.904;9.414;2023-06-26T13:37:56;0.90;;;0.43;;
15120;SDS011;7661;48.904;9.414;2023-06-26T13:40:23;0.90;;;0.50;;
15120;SDS011;7661;48.904;9.414;2023-06-26T13:42:50;0.90;;;0.50;;
15120;SDS011;7661;48.904;9.414;2023-06-26T13:45:17;0.80;;;0.43;;
15120;SDS011;7661;48.904;9.414;2023-06-26T13:47:45;1.00;;;0.50;;
15120;SDS011;7661;48.904;9.414;2023-06-26T13:50:12;0.90;;;0.40;;
15120;SDS011;7661;48.904;9.414;2023-06-26T13:52:39;0.90;;;0.50;;
15120;SDS011;7661;48.904;9.414;2023-06-26T13:55:06;0.90;;;0.43;;
15120;SDS011;7661;48.904;9.414;2023-06-26T13:57:33;0.90;;;0.50;;
15120;SDS011;7661;48.904;9.414;2023-06-26T14:00:07;0.90;;;0.50;;
15120;SDS011;7661;48.904;9.414;2023-06-26T14:02:34;0.90;;;0.40;;
15120;SDS011;7661;48.904;9.414;2023-06-26T14:05:03;0.90;;;0.40;;
15120;SDS011;7661;48.904;9.414;2023-06-26T14:07:30;0.90;;;0.50;;
15120;SDS011;7661;48.904;9.414;2023-06-26T14:09:57;0.90;;;0.40;;
15120;SDS011;7661;48.904;9.414;2023-06-26T14:18:29;1.00;;;0.50;;
15120;SDS011;7661;48.904;9.414;2023-06-26T14:20:58;1.00;;;0.50;;
15120;SDS011;7661;48.904;9.414;2023-06-26T14:23:25;0.93;;;0.50;;
15120;SDS011;7661;48.904;9.414;2023-06-26T14:25:52;0.90;;;0.50;;
15120;SDS011;7661;48.904;9.414;2023-06-26T14:28:18;0.90;;;0.47;;
15120;SDS011;7661;48.904;9.414;2023-06-26T14:30:45;1.00;;;0.50;;
15120;SDS011;7661;48.904;9.414;2023-06-26T14:33:12;0.90;;;0.50;;
15120;SDS011;7661;48.904;9.414;2023-06-26T14:35:39;0.90;;;0.50;;
15120;SDS011;7661;48.904;9.414;2023-06-26T14:38:08;0.90;;;0.50;;
15120;SDS011;7661;48.904;9.414;2023-06-26T14:40:36;0.90;;;0.40;;
15120;SDS011;7661;48.904;9.414;2023-06-26T14:43:03;0.90;;;0.40;;
15120;SDS011;7661;48.904;9.414;2023-06-26T14:45:29;0.90;;;0.50;;
15120;SDS011;7661;48.904;9.414;2023-06-26T14:47:56;1.00;;;0.50;;
15120;SDS011;7661;48.904;9.414;2023-06-26T14:50:23;0.90;;;0.40;;
15120;SDS011;7661;48.904;9.414;2023-06-26T14:52:50;0.90;;;0.40;;
15120;SDS011;7661;48.904;9.414;2023-06-26T14:55:18;1.00;;;0.50;;
15120;SDS011;7661;48.904;9.414;2023-06-26T14:57:45;0.90;;;0.50;;
15120;SDS011;7661;48.904;9.414;2023-06-26T15:00:13;0.90;;;0.40;;
15120;SDS011;7661;48.904;9.414;2023-06-26T15:02:40;0.90;;;0.50;;
15120;SDS011;7661;48.904;9.414;2023-06-26T15:05:07;0.90;;;0.40;;
15120;SDS011;7661;48.904;9.414;2023-06-26T15:07:35;1.00;;;0.50;;
15120;SDS011;7661;48.904;9.414;2023-06-26T15:10:01;1.00;;;0.40;;
15120;SDS011;7661;48.904;9.414;2023-06-26T15:12:30;1.00;;;0.50;;
15120;SDS011;7661;48.904;9.414;2023-06-26T15:14:57;1.10;;;0.50;;
15120;SDS011;7661;48.904;9.414;2023-06-26T15:17:24;1.10;;;0.50;;
15120;SDS011;7661;48.904;9.414;2023-06-26T15:19:51;1.10;;;0.50;;
15120;SDS011;7661;48.904;9.414;2023-06-26T15:22:18;1.10;;;0.50;;